sensor_id;sensor_type;location;lat;lon;timestamp;pressure;altitude;pressure_sealevel;temperature;humidity
45071;BME280;30836;48.906;9.140;2023-07-08T00:00:33;986.46;;;30.69;22.92
45071;BME280;30836;48.906;9.140;2023-07-08T00:01:33;986.46;;;30.68;22.86
45071;BME280;30836;48.906;9.140;2023-07-08T00:02:34;986.46;;;30.67;22.77
45071;BME280;30836;48.906;9.140;2023-07-08T00:03:34;986.48;;;30.67;22.77
45071;BME280;30836;48.906;9.140;2023-07-08T00:04:35;986.46;;;30.67;22.82
45071;BME280;30836;48.906;9.140;2023-07-08T00:05:35;986.48;;;30.68;22.76
45071;BME280;30836;48.906;9.140;2023-07-08T00:06:36;986.48;;;30.68;22.85
45071;BME280;30836;48.906;9.140;2023-07-08T00:07:37;986.48;;;30.68;22.82
45071;BME280;30836;48.906;9.140;2023-07-08T00:08:38;986.46;;;30.68;22.80
45071;BME280;30836;48.906;9.140;2023-07-08T00:09:38;986.46;;;30.67;22.78
45071;BME280;30836;48.906;9.140;2023-07-08T00:10:39;986.44;;;30.66;22.77
45071;BME280;30836;48.906;9.140;2023-07-08T00:11:39;986.42;;;30.65;22.82
45071;BME280;30836;48.906;9.140;2023-07-08T00:12:40;986.42;;;30.64;22.99
45071;BME280;30836;48.906;9.140;2023-07-08T00:13:41;986.38;;;30.62;23.01
45071;BME280;30836;48.906;9.140;2023-07-08T00:14:42;986.40;;;30.61;23.01
45071;BME280;30836;48.906;9.140;2023-07-08T00:15:42;986.36;;;30.59;23.04
45071;BME280;30836;48.906;9.140;2023-07-08T00:16:43;986.34;;;30.57;23.60
45071;BME280;30836;48.906;9.140;2023-07-08T00:17:43;986.34;;;30.54;24.10
45071;BME280;30836;48.906;9.140;2023-07-08T00:18:44;986.31;;;30.50;24.29
45071;BME280;30836;48.906;9.140;2023-07-08T00:19:45;986.31;;;30.45;24.43
45071;BME280;30836;48.906;9.140;2023-07-08T00:20:47;986.29;;;30.41;24.69
45071;BME280;30836;48.906;9.140;2023-07-08T00:21:49;986.27;;;30.36;24.69
45071;BME280;30836;48.906;9.140;2023-07-08T00:22:50;986.27;;;30.32;24.86
45071;BME280;30836;48.906;9.140;2023-07-08T00:23:50;986.27;;;30.27;24.93
45071;BME280;30836;48.906;9.140;2023-07-08T00:24:51;986.29;;;30.22;25.06
45071;BME280;30836;48.906;9.140;2023-07-08T00:25:52;986.29;;;30.18;25.19
45071;BME280;30836;48.906;9.140;2023-07-08T00:26:52;986.27;;;30.13;25.33
45071;BME280;30836;48.906;9.140;2023-07-08T00:27:53;986.27;;;30.07;25.33
45071;BME280;30836;48.906;9.140;2023-07-08T00:28:53;986.27;;;30.01;25.30
45071;BME280;30836;48.906;9.140;2023-07-08T00:29:54;986.27;;;29.97;25.36
45071;BME280;30836;48.906;9.140;2023-07-08T00:30:55;986.27;;;29.93;25.48
45071;BME280;30836;48.906;9.140;2023-07-08T00:31:55;986.25;;;29.87;25.60
45071;BME280;30836;48.906;9.140;2023-07-08T00:32:56;986.27;;;29.80;25.60
45071;BME280;30836;48.906;9.140;2023-07-08T00:33:57;986.27;;;29.74;25.67
45071;BME280;30836;48.906;9.140;2023-07-08T00:34:57;986.23;;;29.70;25.74
45071;BME280;30836;48.906;9.140;2023-07-08T00:35:58;986.23;;;29.65;25.80
45071;BME280;30836;48.906;9.140;2023-07-08T00:36:58;986.25;;;29.62;25.92
45071;BME280;30836;48.906;9.140;2023-07-08T00:37:59;986.21;;;29.58;25.96
45071;BME280;30836;48.906;9.140;2023-07-08T00:38:59;986.23;;;29.57;25.95
45071;BME280;30836;48.906;9.140;2023-07-08T00:40:00;986.25;;;29.56;25.85
45071;BME280;30836;48.906;9.140;2023-07-08T00:42:14;986.29;;;29.57;25.67
45071;BME280;30836;48.906;9.140;2023-07-08T00:43:17;986.27;;;29.65;25.44
45071;BME280;30836;48.906;9.140;2023-07-08T00:44:23;986.33;;;29.72;25.40
45071;BME280;30836;48.906;9.140;2023-07-08T00:45:30;986.33;;;29.73;25.60
45071;BME280;30836;48.906;9.140;2023-07-08T00:46:38;986.33;;;29.68;25.73
45071;BME280;30836;48.906;9.140;2023-07-08T00:47:45;986.34;;;29.64;25.64
45071;BME280;30836;48.906;9.140;2023-07-08T00:48:47;986.38;;;29.60;25.65
45071;BME280;30836;48.906;9.140;2023-07-08T00:49:52;986.38;;;29.54;25.92
45071;BME280;30836;48.906;9.140;2023-07-08T00:50:59;986.42;;;29.46;26.11
45071;BME280;30836;48.906;9.140;2023-07-08T00:54:21;986.48;;;29.29;26.20
45071;BME280;30836;48.906;9.140;2023-07-08T00:55:21;986.52;;;29.25;26.19
45071;BME280;30836;48.906;9.140;2023-07-08T00:56:23;986.54;;;29.21;26.38
45071;BME280;30836;48.906;9.140;2023-07-08T00:57:29;986.54;;;29.18;26.43
45071;BME280;30836;48.906;9.140;2023-07-08T00:59:46;986.54;;;29.31;25.99
45071;BME280;30836;48.906;9.140;2023-07-08T01:00:50;986.56;;;29.40;25.86
45071;BME280;30836;48.906;9.140;2023-07-08T01:01:52;986.56;;;29.47;25.77
45071;BME280;30836;48.906;9.140;2023-07-08T01:02:55;986.54;;;29.52;25.69
45071;BME280;30836;48.906;9.140;2023-07-08T01:05:12;986.54;;;29.61;25.58
45071;BME280;30836;48.906;9.140;2023-07-08T01:06:16;986.54;;;29.64;25.27
45071;BME280;30836;48.906;9.140;2023-07-08T01:07:19;986.54;;;29.67;25.07
45071;BME280;30836;48.906;9.140;2023-07-08T01:07:30;986.52;;;29.68;25.06
45071;BME280;30836;48.906;9.140;2023-07-08T01:08:31;986.50;;;29.68;25.09
45071;BME280;30836;48.906;9.140;2023-07-08T01:09:34;986.48;;;29.63;25.33
45071;BME280;30836;48.906;9.140;2023-07-08T01:11:46;986.52;;;29.40;25.52
45071;BME280;30836;48.906;9.140;2023-07-08T01:12:47;986.48;;;29.29;25.69
45071;BME280;30836;48.906;9.140;2023-07-08T01:13:52;986.50;;;29.22;25.91
45071;BME280;30836;48.906;9.140;2023-07-08T01:14:53;986.46;;;29.16;25.89
45071;BME280;30836;48.906;9.140;2023-07-08T01:15:54;986.48;;;29.12;25.76
45071;BME280;30836;48.906;9.140;2023-07-08T01:16:55;986.48;;;29.10;25.76
45071;BME280;30836;48.906;9.140;2023-07-08T01:17:55;986.44;;;29.07;26.00
45071;BME280;30836;48.906;9.140;2023-07-08T01:18:56;986.46;;;29.04;26.03
45071;BME280;30836;48.906;9.140;2023-07-08T01:19:56;986.42;;;29.01;25.98
45071;BME280;30836;48.906;9.140;2023-07-08T01:21:00;986.42;;;28.98;26.08
45071;BME280;30836;48.906;9.140;2023-07-08T01:22:05;986.40;;;28.98;25.98
45071;BME280;30836;48.906;9.140;2023-07-08T01:23:07;986.40;;;29.03;25.62
45071;BME280;30836;48.906;9.140;2023-07-08T01:24:10;986.38;;;29.13;25.58
45071;BME280;30836;48.906;9.140;2023-07-08T01:25:12;986.36;;;29.23;25.36
45071;BME280;30836;48.906;9.140;2023-07-08T01:26:13;986.40;;;29.33;25.35
45071;BME280;30836;48.906;9.140;2023-07-08T01:27:15;986.40;;;29.41;25.28
45071;BME280;30836;48.906;9.140;2023-07-08T01:28:18;986.40;;;29.48;25.22
45071;BME280;30836;48.906;9.140;2023-07-08T01:29:18;986.40;;;29.54;25.18
45071;BME280;30836;48.906;9.140;2023-07-08T01:30:19;986.44;;;29.59;25.30
45071;BME280;30836;48.906;9.140;2023-07-08T01:31:19;986.44;;;29.62;25.61
45071;BME280;30836;48.906;9.140;2023-07-08T01:32:22;986.46;;;29.64;25.66
45071;BME280;30836;48.906;9.140;2023-07-08T01:33:22;986.46;;;29.66;25.75
45071;BME280;30836;48.906;9.140;2023-07-08T01:34:23;986.48;;;29.67;25.86
45071;BME280;30836;48.906;9.140;2023-07-08T01:35:23;986.48;;;29.68;25.88
45071;BME280;30836;48.906;9.140;2023-07-08T01:36:24;986.48;;;29.68;25.98
45071;BME280;30836;48.906;9.140;2023-07-08T01:37:30;986.48;;;29.67;25.95
45071;BME280;30836;48.906;9.140;2023-07-08T01:38:35;986.48;;;29.66;25.98
45071;BME280;30836;48.906;9.140;2023-07-08T01:39:36;986.46;;;29.66;26.03
45071;BME280;30836;48.906;9.140;2023-07-08T01:40:37;986.44;;;29.67;26.02
45071;BME280;30836;48.906;9.140;2023-07-08T01:41:38;986.46;;;29.67;26.03
45071;BME280;30836;48.906;9.140;2023-07-08T01:42:38;986.44;;;29.68;25.97
45071;BME280;30836;48.906;9.140;2023-07-08T01:43:39;986.42;;;29.68;25.93
45071;BME280;30836;48.906;9.140;2023-07-08T01:44:39;986.40;;;29.69;25.99
45071;BME280;30836;48.906;9.140;2023-07-08T01:45:40;986.40;;;29.69;25.92
45071;BME280;30836;48.906;9.140;2023-07-08T01:46:41;986.38;;;29.69;25.88
45071;BME280;30836;48.906;9.140;2023-07-08T01:47:42;986.36;;;29.69;25.86
45071;BME280;30836;48.906;9.140;2023-07-08T01:48:49;986.36;;;29.69;25.82
45071;BME280;30836;48.906;9.140;2023-07-08T01:49:53;986.34;;;29.69;25.91
45071;BME280;30836;48.906;9.140;2023-07-08T01:50:59;986.33;;;29.69;25.99
45071;BME280;30836;48.906;9.140;2023-07-08T01:52:01;986.33;;;29.69;26.01
45071;BME280;30836;48.906;9.140;2023-07-08T01:53:03;986.33;;;29.68;25.98
45071;BME280;30836;48.906;9.140;2023-07-08T01:54:10;986.34;;;29.66;25.93
45071;BME280;30836;48.906;9.140;2023-07-08T01:55:11;986.34;;;29.65;25.99
45071;BME280;30836;48.906;9.140;2023-07-08T01:56:12;986.34;;;29.64;26.06
45071;BME280;30836;48.906;9.140;2023-07-08T01:57:13;986.36;;;29.64;26.13
45071;BME280;30836;48.906;9.140;2023-07-08T01:58:13;986.36;;;29.63;26.10
45071;BME280;30836;48.906;9.140;2023-07-08T01:58:23;986.36;;;29.60;26.11
45071;BME280;30836;48.906;9.140;2023-07-08T01:59:24;986.38;;;29.59;26.22
45071;BME280;30836;48.906;9.140;2023-07-08T02:00:25;986.36;;;29.50;26.34
45071;BME280;30836;48.906;9.140;2023-07-08T02:01:25;986.38;;;29.34;26.73
45071;BME280;30836;48.906;9.140;2023-07-08T02:02:26;986.40;;;29.17;27.16
45071;BME280;30836;48.906;9.140;2023-07-08T02:03:27;986.40;;;29.02;27.46
45071;BME280;30836;48.906;9.140;2023-07-08T02:04:28;986.44;;;28.89;27.73
45071;BME280;30836;48.906;9.140;2023-07-08T02:05:28;986.44;;;28.76;27.92
45071;BME280;30836;48.906;9.140;2023-07-08T02:06:29;986.44;;;28.63;28.19
45071;BME280;30836;48.906;9.140;2023-07-08T02:07:29;986.44;;;28.51;28.43
45071;BME280;30836;48.906;9.140;2023-07-08T02:08:29;986.48;;;28.41;28.50
45071;BME280;30836;48.906;9.140;2023-07-08T02:09:30;986.44;;;28.31;28.74
45071;BME280;30836;48.906;9.140;2023-07-08T02:10:30;986.44;;;28.20;28.89
45071;BME280;30836;48.906;9.140;2023-07-08T02:11:31;986.40;;;28.09;29.00
45071;BME280;30836;48.906;9.140;2023-07-08T02:12:31;986.40;;;28.00;29.08
45071;BME280;30836;48.906;9.140;2023-07-08T02:13:32;986.38;;;27.93;29.20
45071;BME280;30836;48.906;9.140;2023-07-08T02:14:32;986.38;;;27.86;29.17
45071;BME280;30836;48.906;9.140;2023-07-08T02:15:33;986.36;;;27.80;29.28
45071;BME280;30836;48.906;9.140;2023-07-08T02:16:34;986.34;;;27.75;29.32
45071;BME280;30836;48.906;9.140;2023-07-08T02:17:34;986.34;;;27.72;29.39
45071;BME280;30836;48.906;9.140;2023-07-08T02:18:34;986.33;;;27.69;29.42
45071;BME280;30836;48.906;9.140;2023-07-08T02:19:35;986.34;;;27.66;29.46
45071;BME280;30836;48.906;9.140;2023-07-08T02:20:35;986.34;;;27.64;29.40
45071;BME280;30836;48.906;9.140;2023-07-08T02:21:36;986.34;;;27.61;29.48
45071;BME280;30836;48.906;9.140;2023-07-08T02:22:36;986.33;;;27.59;29.64
45071;BME280;30836;48.906;9.140;2023-07-08T02:23:36;986.36;;;27.57;29.63
45071;BME280;30836;48.906;9.140;2023-07-08T02:24:37;986.34;;;27.56;29.62
45071;BME280;30836;48.906;9.140;2023-07-08T02:25:37;986.38;;;27.54;29.72
45071;BME280;30836;48.906;9.140;2023-07-08T02:26:38;986.38;;;27.54;29.64
45071;BME280;30836;48.906;9.140;2023-07-08T02:27:38;986.40;;;27.54;29.84
45071;BME280;30836;48.906;9.140;2023-07-08T02:28:39;986.42;;;27.53;29.90
45071;BME280;30836;48.906;9.140;2023-07-08T02:29:39;986.40;;;27.52;29.89
45071;BME280;30836;48.906;9.140;2023-07-08T02:30:40;986.44;;;27.51;29.90
45071;BME280;30836;48.906;9.140;2023-07-08T02:31:40;986.44;;;27.49;29.95
45071;BME280;30836;48.906;9.140;2023-07-08T02:32:41;986.42;;;27.48;29.99
45071;BME280;30836;48.906;9.140;2023-07-08T02:33:41;986.44;;;27.47;29.98
45071;BME280;30836;48.906;9.140;2023-07-08T02:34:42;986.42;;;27.45;30.10
45071;BME280;30836;48.906;9.140;2023-07-08T02:35:42;986.44;;;27.42;30.19
45071;BME280;30836;48.906;9.140;2023-07-08T02:36:43;986.46;;;27.39;30.44
45071;BME280;30836;48.906;9.140;2023-07-08T02:37:44;986.48;;;27.35;30.57
45071;BME280;30836;48.906;9.140;2023-07-08T02:38:44;986.48;;;27.31;30.44
45071;BME280;30836;48.906;9.140;2023-07-08T02:39:45;986.50;;;27.28;30.47
45071;BME280;30836;48.906;9.140;2023-07-08T02:40:45;986.50;;;27.25;30.47
45071;BME280;30836;48.906;9.140;2023-07-08T02:41:46;986.50;;;27.24;30.45
45071;BME280;30836;48.906;9.140;2023-07-08T02:42:46;986.50;;;27.23;30.55
45071;BME280;30836;48.906;9.140;2023-07-08T02:43:46;986.48;;;27.18;30.70
45071;BME280;30836;48.906;9.140;2023-07-08T02:44:47;986.50;;;27.10;30.74
45071;BME280;30836;48.906;9.140;2023-07-08T02:45:50;986.48;;;27.04;30.83
45071;BME280;30836;48.906;9.140;2023-07-08T02:46:52;986.50;;;26.99;31.01
45071;BME280;30836;48.906;9.140;2023-07-08T02:47:52;986.50;;;26.96;30.92
45071;BME280;30836;48.906;9.140;2023-07-08T02:48:53;986.50;;;26.94;30.95
45071;BME280;30836;48.906;9.140;2023-07-08T02:49:53;986.52;;;26.94;30.87
45071;BME280;30836;48.906;9.140;2023-07-08T02:52:00;986.52;;;26.90;31.01
45071;BME280;30836;48.906;9.140;2023-07-08T02:53:00;986.54;;;26.88;30.92
45071;BME280;30836;48.906;9.140;2023-07-08T02:54:01;986.54;;;26.86;30.90
45071;BME280;30836;48.906;9.140;2023-07-08T02:55:01;986.56;;;26.84;30.92
45071;BME280;30836;48.906;9.140;2023-07-08T02:56:02;986.58;;;26.82;30.95
45071;BME280;30836;48.906;9.140;2023-07-08T02:57:03;986.56;;;26.79;31.01
45071;BME280;30836;48.906;9.140;2023-07-08T02:58:03;986.58;;;26.76;30.98
45071;BME280;30836;48.906;9.140;2023-07-08T02:59:04;986.60;;;26.74;31.00
45071;BME280;30836;48.906;9.140;2023-07-08T03:00:04;986.62;;;26.72;30.65
45071;BME280;30836;48.906;9.140;2023-07-08T03:01:05;986.62;;;26.71;30.14
45071;BME280;30836;48.906;9.140;2023-07-08T03:02:06;986.64;;;26.78;29.91
45071;BME280;30836;48.906;9.140;2023-07-08T03:03:06;986.68;;;26.92;30.06
45071;BME280;30836;48.906;9.140;2023-07-08T03:04:10;986.68;;;27.06;30.03
45071;BME280;30836;48.906;9.140;2023-07-08T03:05:11;986.70;;;27.18;29.98
45071;BME280;30836;48.906;9.140;2023-07-08T03:06:11;986.72;;;27.26;29.91
45071;BME280;30836;48.906;9.140;2023-07-08T03:07:13;986.72;;;27.33;29.87
45071;BME280;30836;48.906;9.140;2023-07-08T03:08:14;986.72;;;27.39;29.76
45071;BME280;30836;48.906;9.140;2023-07-08T03:09:14;986.72;;;27.44;29.72
45071;BME280;30836;48.906;9.140;2023-07-08T03:10:14;986.72;;;27.46;29.59
45071;BME280;30836;48.906;9.140;2023-07-08T03:11:15;986.76;;;27.48;29.48
45071;BME280;30836;48.906;9.140;2023-07-08T03:12:15;986.78;;;27.50;29.38
45071;BME280;30836;48.906;9.140;2023-07-08T03:13:16;986.78;;;27.53;29.29
45071;BME280;30836;48.906;9.140;2023-07-08T03:14:16;986.82;;;27.55;29.26
45071;BME280;30836;48.906;9.140;2023-07-08T03:15:17;986.84;;;27.56;29.40
45071;BME280;30836;48.906;9.140;2023-07-08T03:16:17;986.89;;;27.55;29.62
45071;BME280;30836;48.906;9.140;2023-07-08T03:17:18;986.91;;;27.54;29.63
45071;BME280;30836;48.906;9.140;2023-07-08T03:18:18;986.95;;;27.53;29.52
45071;BME280;30836;48.906;9.140;2023-07-08T03:19:18;987.01;;;27.52;29.65
45071;BME280;30836;48.906;9.140;2023-07-08T03:20:19;986.99;;;27.50;29.61
45071;BME280;30836;48.906;9.140;2023-07-08T03:21:19;987.01;;;27.49;29.55
45071;BME280;30836;48.906;9.140;2023-07-08T03:22:20;986.99;;;27.46;29.69
45071;BME280;30836;48.906;9.140;2023-07-08T03:23:20;987.01;;;27.41;29.59
45071;BME280;30836;48.906;9.140;2023-07-08T03:24:20;987.01;;;27.38;29.66
45071;BME280;30836;48.906;9.140;2023-07-08T03:25:21;986.97;;;27.34;29.56
45071;BME280;30836;48.906;9.140;2023-07-08T03:26:23;986.99;;;27.32;29.34
45071;BME280;30836;48.906;9.140;2023-07-08T03:27:24;986.97;;;27.31;29.33
45071;BME280;30836;48.906;9.140;2023-07-08T03:28:25;986.95;;;27.32;29.16
45071;BME280;30836;48.906;9.140;2023-07-08T03:29:25;986.95;;;27.35;29.09
45071;BME280;30836;48.906;9.140;2023-07-08T03:30:26;986.95;;;27.38;29.30
45071;BME280;30836;48.906;9.140;2023-07-08T03:31:27;986.91;;;27.42;29.24
45071;BME280;30836;48.906;9.140;2023-07-08T03:32:27;986.93;;;27.47;28.75
45071;BME280;30836;48.906;9.140;2023-07-08T03:33:28;986.95;;;27.50;28.39
45071;BME280;30836;48.906;9.140;2023-07-08T03:34:28;986.95;;;27.53;28.25
45071;BME280;30836;48.906;9.140;2023-07-08T03:35:28;986.97;;;27.56;28.81
45071;BME280;30836;48.906;9.140;2023-07-08T03:36:29;986.99;;;27.58;28.93
45071;BME280;30836;48.906;9.140;2023-07-08T03:37:29;987.01;;;27.60;28.94
45071;BME280;30836;48.906;9.140;2023-07-08T03:38:30;987.07;;;27.62;28.93
45071;BME280;30836;48.906;9.140;2023-07-08T03:39:30;987.05;;;27.63;28.92
45071;BME280;30836;48.906;9.140;2023-07-08T03:40:31;987.03;;;27.63;28.97
45071;BME280;30836;48.906;9.140;2023-07-08T03:41:31;986.97;;;27.63;28.94
45071;BME280;30836;48.906;9.140;2023-07-08T03:42:32;986.89;;;27.64;29.05
45071;BME280;30836;48.906;9.140;2023-07-08T03:43:32;986.82;;;27.65;29.15
45071;BME280;30836;48.906;9.140;2023-07-08T03:44:32;986.74;;;27.66;28.78
45071;BME280;30836;48.906;9.140;2023-07-08T03:45:33;986.74;;;27.68;28.65
45071;BME280;30836;48.906;9.140;2023-07-08T03:46:33;986.76;;;27.70;28.56
45071;BME280;30836;48.906;9.140;2023-07-08T03:47:34;986.82;;;27.73;28.63
45071;BME280;30836;48.906;9.140;2023-07-08T03:48:34;986.91;;;27.74;28.68
45071;BME280;30836;48.906;9.140;2023-07-08T03:49:35;986.99;;;27.69;28.91
45071;BME280;30836;48.906;9.140;2023-07-08T03:50:36;987.03;;;27.57;29.25
45071;BME280;30836;48.906;9.140;2023-07-08T03:51:38;987.01;;;27.43;29.43
45071;BME280;30836;48.906;9.140;2023-07-08T03:52:40;986.97;;;27.31;29.62
45071;BME280;30836;48.906;9.140;2023-07-08T03:53:40;986.95;;;27.22;29.69
45071;BME280;30836;48.906;9.140;2023-07-08T03:54:41;986.91;;;27.13;29.72
45071;BME280;30836;48.906;9.140;2023-07-08T03:55:42;986.85;;;27.05;29.82
45071;BME280;30836;48.906;9.140;2023-07-08T03:56:42;986.82;;;26.97;29.83
45071;BME280;30836;48.906;9.140;2023-07-08T03:57:42;986.80;;;26.92;29.93
45071;BME280;30836;48.906;9.140;2023-07-08T03:58:43;986.80;;;26.87;29.95
45071;BME280;30836;48.906;9.140;2023-07-08T03:59:43;986.85;;;26.84;29.97
45071;BME280;30836;48.906;9.140;2023-07-08T04:00:44;986.91;;;26.79;30.16
45071;BME280;30836;48.906;9.140;2023-07-08T04:01:44;986.99;;;26.70;30.34
45071;BME280;30836;48.906;9.140;2023-07-08T04:02:45;986.97;;;26.62;30.46
45071;BME280;30836;48.906;9.140;2023-07-08T04:03:46;987.01;;;26.56;30.51
45071;BME280;30836;48.906;9.140;2023-07-08T04:04:47;986.97;;;26.50;30.70
45071;BME280;30836;48.906;9.140;2023-07-08T04:05:48;986.99;;;26.46;30.78
45071;BME280;30836;48.906;9.140;2023-07-08T04:06:48;986.99;;;26.43;30.75
45071;BME280;30836;48.906;9.140;2023-07-08T04:07:49;986.99;;;26.43;30.77
45071;BME280;30836;48.906;9.140;2023-07-08T04:08:49;986.99;;;26.44;30.85
45071;BME280;30836;48.906;9.140;2023-07-08T04:09:50;986.99;;;26.46;30.85
45071;BME280;30836;48.906;9.140;2023-07-08T04:10:50;986.97;;;26.47;30.86
45071;BME280;30836;48.906;9.140;2023-07-08T04:11:51;986.97;;;26.47;30.85
45071;BME280;30836;48.906;9.140;2023-07-08T04:12:51;986.99;;;26.49;30.76
45071;BME280;30836;48.906;9.140;2023-07-08T04:13:52;987.01;;;26.51;30.70
45071;BME280;30836;48.906;9.140;2023-07-08T04:14:52;986.97;;;26.54;30.71
45071;BME280;30836;48.906;9.140;2023-07-08T04:16:02;986.99;;;26.58;30.65
45071;BME280;30836;48.906;9.140;2023-07-08T04:17:00;986.95;;;26.63;30.73
45071;BME280;30836;48.906;9.140;2023-07-08T04:18:01;986.93;;;26.68;30.77
45071;BME280;30836;48.906;9.140;2023-07-08T04:19:01;986.89;;;26.72;30.82
45071;BME280;30836;48.906;9.140;2023-07-08T04:20:02;986.87;;;26.75;30.77
45071;BME280;30836;48.906;9.140;2023-07-08T04:21:03;986.87;;;26.76;30.81
45071;BME280;30836;48.906;9.140;2023-07-08T04:22:03;986.93;;;26.78;30.84
45071;BME280;30836;48.906;9.140;2023-07-08T04:23:04;986.93;;;26.81;30.76
45071;BME280;30836;48.906;9.140;2023-07-08T04:24:04;986.89;;;26.84;30.67
45071;BME280;30836;48.906;9.140;2023-07-08T04:25:05;986.87;;;26.87;30.55
45071;BME280;30836;48.906;9.140;2023-07-08T04:26:08;986.85;;;26.91;30.47
45071;BME280;30836;48.906;9.140;2023-07-08T04:27:12;986.82;;;26.92;30.37
45071;BME280;30836;48.906;9.140;2023-07-08T04:28:14;986.85;;;26.91;30.34
45071;BME280;30836;48.906;9.140;2023-07-08T04:29:15;986.84;;;26.92;30.47
45071;BME280;30836;48.906;9.140;2023-07-08T04:30:22;986.85;;;26.96;30.36
45071;BME280;30836;48.906;9.140;2023-07-08T04:31:24;986.85;;;27.07;29.94
45071;BME280;30836;48.906;9.140;2023-07-08T04:32:25;986.84;;;27.24;29.44
45071;BME280;30836;48.906;9.140;2023-07-08T04:33:25;986.84;;;27.40;29.04
45071;BME280;30836;48.906;9.140;2023-07-08T04:34:26;986.84;;;27.53;28.95
45071;BME280;30836;48.906;9.140;2023-07-08T04:35:26;986.85;;;27.67;28.79
45071;BME280;30836;48.906;9.140;2023-07-08T04:36:26;986.84;;;27.79;28.75
45071;BME280;30836;48.906;9.140;2023-07-08T04:37:27;986.85;;;27.88;28.62
45071;BME280;30836;48.906;9.140;2023-07-08T04:38:27;986.84;;;27.96;28.53
45071;BME280;30836;48.906;9.140;2023-07-08T04:39:29;986.87;;;28.05;28.42
45071;BME280;30836;48.906;9.140;2023-07-08T04:40:30;986.85;;;28.11;28.39
45071;BME280;30836;48.906;9.140;2023-07-08T04:41:31;986.84;;;28.14;28.43
45071;BME280;30836;48.906;9.140;2023-07-08T04:42:31;986.85;;;28.17;28.44
45071;BME280;30836;48.906;9.140;2023-07-08T04:43:32;986.82;;;28.23;28.40
45071;BME280;30836;48.906;9.140;2023-07-08T04:44:32;986.84;;;28.30;28.39
45071;BME280;30836;48.906;9.140;2023-07-08T04:45:33;986.84;;;28.38;28.44
45071;BME280;30836;48.906;9.140;2023-07-08T04:47:42;986.82;;;28.52;28.40
45071;BME280;30836;48.906;9.140;2023-07-08T04:48:43;986.82;;;28.58;28.42
45071;BME280;30836;48.906;9.140;2023-07-08T04:49:43;986.76;;;28.64;28.36
45071;BME280;30836;48.906;9.140;2023-07-08T04:50:45;986.78;;;28.70;28.30
45071;BME280;30836;48.906;9.140;2023-07-08T04:51:46;986.78;;;28.74;28.36
45071;BME280;30836;48.906;9.140;2023-07-08T04:52:47;986.80;;;28.76;28.30
45071;BME280;30836;48.906;9.140;2023-07-08T04:53:47;986.78;;;28.78;28.27
45071;BME280;30836;48.906;9.140;2023-07-08T04:54:48;986.82;;;28.78;28.25
45071;BME280;30836;48.906;9.140;2023-07-08T04:55:50;986.85;;;28.80;28.04
45071;BME280;30836;48.906;9.140;2023-07-08T04:56:53;986.85;;;28.84;28.11
45071;BME280;30836;48.906;9.140;2023-07-08T04:57:53;986.89;;;28.87;28.16
45071;BME280;30836;48.906;9.140;2023-07-08T04:58:53;986.89;;;28.91;28.00
45071;BME280;30836;48.906;9.140;2023-07-08T04:59:54;986.89;;;28.94;28.05
45071;BME280;30836;48.906;9.140;2023-07-08T05:00:54;986.87;;;28.98;28.04
45071;BME280;30836;48.906;9.140;2023-07-08T05:01:55;986.91;;;29.02;28.05
45071;BME280;30836;48.906;9.140;2023-07-08T05:02:55;986.91;;;29.04;28.03
45071;BME280;30836;48.906;9.140;2023-07-08T05:03:56;986.91;;;29.00;28.22
45071;BME280;30836;48.906;9.140;2023-07-08T05:04:56;986.91;;;28.87;28.66
45071;BME280;30836;48.906;9.140;2023-07-08T05:05:57;986.93;;;28.71;28.97
45071;BME280;30836;48.906;9.140;2023-07-08T05:06:57;986.91;;;28.57;29.03
45071;BME280;30836;48.906;9.140;2023-07-08T05:07:58;986.93;;;28.46;29.12
45071;BME280;30836;48.906;9.140;2023-07-08T05:08:58;986.93;;;28.39;29.23
45071;BME280;30836;48.906;9.140;2023-07-08T05:09:59;986.93;;;28.36;29.21
45071;BME280;30836;48.906;9.140;2023-07-08T05:11:00;986.93;;;28.34;29.25
45071;BME280;30836;48.906;9.140;2023-07-08T05:12:00;986.93;;;28.34;29.05
45071;BME280;30836;48.906;9.140;2023-07-08T05:13:01;986.93;;;28.34;29.18
45071;BME280;30836;48.906;9.140;2023-07-08T05:14:02;986.97;;;28.34;29.17
45071;BME280;30836;48.906;9.140;2023-07-08T05:15:03;986.99;;;28.32;29.23
45071;BME280;30836;48.906;9.140;2023-07-08T05:16:04;987.05;;;28.29;29.22
45071;BME280;30836;48.906;9.140;2023-07-08T05:17:05;987.07;;;28.26;29.27
45071;BME280;30836;48.906;9.140;2023-07-08T05:18:05;987.07;;;28.24;29.32
45071;BME280;30836;48.906;9.140;2023-07-08T05:19:06;986.99;;;28.20;29.42
45071;BME280;30836;48.906;9.140;2023-07-08T05:20:07;986.93;;;28.14;29.50
45071;BME280;30836;48.906;9.140;2023-07-08T05:21:09;986.93;;;28.11;29.45
45071;BME280;30836;48.906;9.140;2023-07-08T05:22:10;986.99;;;28.18;29.27
45071;BME280;30836;48.906;9.140;2023-07-08T05:23:11;987.09;;;28.32;29.05
45071;BME280;30836;48.906;9.140;2023-07-08T05:24:11;987.13;;;28.47;28.76
45071;BME280;30836;48.906;9.140;2023-07-08T05:25:12;987.15;;;28.60;28.63
45071;BME280;30836;48.906;9.140;2023-07-08T05:26:13;987.13;;;28.70;28.57
45071;BME280;30836;48.906;9.140;2023-07-08T05:27:13;987.07;;;28.77;28.70
45071;BME280;30836;48.906;9.140;2023-07-08T05:28:14;987.07;;;28.80;29.52
45071;BME280;30836;48.906;9.140;2023-07-08T05:29:14;987.07;;;28.82;29.45
45071;BME280;30836;48.906;9.140;2023-07-08T05:30:16;987.07;;;28.85;29.38
45071;BME280;30836;48.906;9.140;2023-07-08T05:31:17;987.11;;;28.88;29.39
45071;BME280;30836;48.906;9.140;2023-07-08T05:32:17;987.15;;;28.90;29.39
45071;BME280;30836;48.906;9.140;2023-07-08T05:33:18;987.19;;;28.94;29.17
45071;BME280;30836;48.906;9.140;2023-07-08T05:34:18;987.35;;;28.99;28.57
45071;BME280;30836;48.906;9.140;2023-07-08T05:35:19;987.41;;;29.04;27.85
45071;BME280;30836;48.906;9.140;2023-07-08T05:36:19;987.45;;;29.07;27.46
45071;BME280;30836;48.906;9.140;2023-07-08T05:37:20;987.47;;;29.08;27.54
45071;BME280;30836;48.906;9.140;2023-07-08T05:38:21;987.51;;;29.09;27.50
45071;BME280;30836;48.906;9.140;2023-07-08T05:39:21;987.49;;;29.11;27.48
45071;BME280;30836;48.906;9.140;2023-07-08T05:40:22;987.41;;;29.13;27.16